Time;durP1;ratioP1;P1;durP2;ratioP2;P2;SDS_P1;SDS_P2;PMS_P1;PMS_P2;Temp;Humidity;BMP_temperature;BMP_pressure;BME280_temperature;BME280_humidity;BME280_pressure;Samples;Min_cycle;Max_cycle;Signal;HPM_P1;HPM_P2
2022/05/12 00:00:54;;;;;;;10.45;4.82;;;;;;;16.18;75.75;98124.97;5113056;28;20014;-85
2022/05/12 00:03:19;;;;;;;12.23;5.72;;;;;;;16.18;74.86;98127.72;5113220;28;20016;-86
2022/05/12 00:05:45;;;;;;;10.10;5.38;;;;;;;16.23;74.62;98122.00;5113524;28;20068;-82
2022/05/12 00:08:11;;;;;;;8.43;5.95;;;;;;;16.21;74.63;98127.06;5112987;28;20024;-85
2022/05/12 00:10:38;;;;;;;16.30;5.60;;;;;;;16.21;74.43;98135.34;5113544;28;20020;-84
2022/05/12 00:13:04;;;;;;;9.13;5.72;;;;;;;16.19;74.94;98132.09;5115903;28;20008;-83
2022/05/12 00:15:33;;;;;;;7.68;5.03;;;;;;;16.18;73.93;98125.78;5117586;28;20031;-83
2022/05/12 00:18:02;;;;;;;9.48;6.30;;;;;;;16.15;74.01;98126.44;5118244;28;20008;-86
2022/05/12 00:20:28;;;;;;;10.30;5.80;;;;;;;16.15;73.79;98122.84;5117874;28;20039;-82
2022/05/12 00:23:10;;;;;;;8.63;5.70;;;;;;;16.05;74.62;98122.06;5119198;28;20008;-84
2022/05/12 00:25:36;;;;;;;8.95;5.80;;;;;;;16.01;75.13;98109.22;5117465;28;20008;-83
2022/05/12 00:28:02;;;;;;;9.98;5.45;;;;;;;16.11;74.31;98113.59;5117675;28;20034;-83
2022/05/12 00:30:28;;;;;;;17.55;6.30;;;;;;;16.18;73.49;98119.44;5117557;28;20032;-83
2022/05/12 00:32:53;;;;;;;12.20;5.78;;;;;;;16.27;72.91;98123.00;5117331;28;20047;-85
2022/05/12 00:35:18;;;;;;;8.63;5.78;;;;;;;16.28;72.55;98127.38;5116816;28;20047;-83
2022/05/12 00:37:44;;;;;;;7.93;5.82;;;;;;;16.21;72.99;98119.59;5117235;28;20077;-85
2022/05/12 00:40:11;;;;;;;10.10;5.85;;;;;;;16.02;73.95;98111.69;5099278;28;20055;-86
2022/05/12 00:42:50;;;;;;;10.52;5.85;;;;;;;16.02;73.55;98110.84;5116810;28;20026;-84
2022/05/12 00:45:16;;;;;;;7.43;5.18;;;;;;;15.95;73.43;98111.34;5116977;28;20072;-85
2022/05/12 00:47:41;;;;;;;11.05;5.88;;;;;;;15.97;73.82;98114.63;5116969;28;20023;-86
2022/05/12 00:50:08;;;;;;;8.10;5.38;;;;;;;15.91;73.09;98110.38;5116191;28;20047;-85
2022/05/12 00:52:33;;;;;;;10.55;5.95;;;;;;;15.93;73.66;98113.63;5116668;28;20074;-87
2022/05/12 00:55:07;;;;;;;15.02;5.88;;;;;;;15.91;74.91;98109.59;5117150;28;20044;-85
2022/05/12 00:57:38;;;;;;;14.27;5.72;;;;;;;15.85;74.37;98103.41;5116473;28;20028;-87
2022/05/12 01:00:08;;;;;;;8.98;5.38;;;;;;;15.89;75.07;98114.59;5114690;28;20020;-87
2022/05/12 01:02:36;;;;;;;9.55;5.45;;;;;;;15.83;75.22;98102.13;5112060;28;20031;-82
2022/05/12 01:05:03;;;;;;;10.05;5.57;;;;;;;15.88;73.41;98116.53;5105717;28;20016;-85
2022/05/12 01:07:28;;;;;;;7.70;4.82;;;;;;;15.81;73.23;98104.41;5107269;28;20043;-83
2022/05/12 01:09:54;;;;;;;9.45;5.30;;;;;;;15.81;73.37;98107.97;5115934;28;20020;-84
2022/05/12 01:12:20;;;;;;;9.40;5.20;;;;;;;15.84;72.95;98114.78;5113120;28;20424;-83
2022/05/12 01:14:46;;;;;;;12.27;5.45;;;;;;;15.81;73.53;98110.72;5114777;28;20039;-84
2022/05/12 01:17:12;;;;;;;7.15;4.88;;;;;;;15.78;72.98;98116.09;5115349;28;20024;-84
2022/05/12 01:19:40;;;;;;;9.82;5.90;;;;;;;15.80;73.97;98105.53;5116205;28;20028;-86
2022/05/12 01:22:09;;;;;;;11.30;6.28;;;;;;;15.69;73.21;98110.56;5114463;28;20004;-83
2022/05/12 01:24:37;;;;;;;15.18;5.75;;;;;;;15.70;73.69;98109.41;5115045;28;20021;-84
2022/05/12 01:27:19;;;;;;;10.60;6.22;;;;;;;15.73;74.06;98114.28;5115357;28;20015;-85
2022/05/12 01:29:51;;;;;;;11.25;5.63;;;;;;;15.68;74.73;98108.13;5114212;28;20597;-86
2022/05/12 01:32:18;;;;;;;11.77;5.38;;;;;;;15.65;75.32;98109.59;5115762;28;20054;-85
2022/05/12 01:34:44;;;;;;;8.73;5.85;;;;;;;15.65;75.30;98115.09;5116007;28;20008;-87
2022/05/12 01:37:09;;;;;;;10.38;5.32;;;;;;;15.65;74.90;98108.78;5118237;28;20035;-85
2022/05/12 01:39:36;;;;;;;7.93;5.15;;;;;;;15.65;74.70;98112.34;5116618;28;20068;-84
2022/05/12 01:42:07;;;;;;;10.77;5.70;;;;;;;15.63;74.88;98114.59;5116623;28;20028;-83
2022/05/12 01:44:34;;;;;;;8.90;5.22;;;;;;;15.61;74.21;98116.88;5114854;28;20101;-82
2022/05/12 01:46:59;;;;;;;11.90;5.55;;;;;;;15.65;74.14;98106.03;5115064;28;20053;-82
2022/05/12 01:49:25;;;;;;;10.70;4.88;;;;;;;15.64;73.53;98110.72;5115501;28;20548;-82
2022/05/12 01:51:52;;;;;;;10.95;5.43;;;;;;;15.62;73.59;98113.00;5113911;28;20019;-82
2022/05/12 01:54:18;;;;;;;11.15;6.35;;;;;;;15.63;73.01;98114.59;5115918;28;20020;-87
2022/05/12 01:56:43;;;;;;;10.30;6.00;;;;;;;15.68;72.24;98102.59;5114598;28;20035;-84
2022/05/12 01:59:09;;;;;;;11.32;5.75;;;;;;;15.81;72.03;98109.91;5114871;28;20031;-82
2022/05/12 02:01:34;;;;;;;8.63;5.05;;;;;;;15.65;72.77;98111.53;5114906;28;20031;-84
2022/05/12 02:04:01;;;;;;;7.10;5.05;;;;;;;15.59;73.58;98112.84;5115187;28;20032;-83
2022/05/12 02:06:27;;;;;;;11.77;5.70;;;;;;;15.49;74.93;98111.19;5113733;28;20024;-81
2022/05/12 02:08:52;;;;;;;10.23;5.75;;;;;;;15.42;76.24;98114.41;5115044;28;20023;-82
2022/05/12 02:11:18;;;;;;;7.43;5.97;;;;;;;15.29;77.87;98117.28;5114197;28;20024;-80
2022/05/12 02:13:43;;;;;;;12.55;6.85;;;;;;;15.19;79.87;98109.34;5115326;28;20049;-82
2022/05/12 02:16:09;;;;;;;12.95;6.82;;;;;;;15.07;83.17;98118.22;5114133;28;20106;-83
2022/05/12 02:18:34;;;;;;;16.20;7.60;;;;;;;15.09;86.26;98104.16;5114094;28;20477;-85
2022/05/12 02:20:59;;;;;;;11.80;7.18;;;;;;;14.94;88.59;98114.47;5113559;28;20019;-88
2022/05/12 02:23:25;;;;;;;13.93;7.22;;;;;;;14.84;91.75;98114.78;5114577;28;20020;-84
2022/05/12 02:25:51;;;;;;;14.25;7.85;;;;;;;14.71;93.38;98123.13;5103297;28;20028;-85
2022/05/12 02:28:16;;;;;;;16.02;9.25;;;;;;;14.58;96.52;98124.88;5109702;28;20499;-86
2022/05/12 02:30:42;;;;;;;14.60;9.25;;;;;;;14.43;98.64;98108.78;5115373;28;20050;-81
2022/05/12 02:33:08;;;;;;;14.60;9.20;;;;;;;14.42;100.00;98112.63;5114301;28;20047;-83
2022/05/12 02:35:35;;;;;;;15.60;9.18;;;;;;;14.41;100.00;98127.53;5115174;28;20024;-81
2022/05/12 02:38:00;;;;;;;15.07;7.68;;;;;;;14.38;100.00;98128.97;5114076;28;20035;-82
2022/05/12 02:40:28;;;;;;;19.65;8.60;;;;;;;14.37;100.00;98132.06;5110046;28;20480;-82
2022/05/12 02:42:54;;;;;;;15.23;8.38;;;;;;;14.30;100.00;98115.94;5112411;28;20028;-82
2022/05/12 02:45:19;;;;;;;12.65;8.73;;;;;;;14.34;100.00;98139.00;5112321;28;20052;-86
2022/05/12 02:47:45;;;;;;;20.42;9.30;;;;;;;14.26;100.00;98128.72;5114084;28;20027;-86
2022/05/12 02:50:13;;;;;;;15.15;8.70;;;;;;;14.21;100.00;98137.09;5114217;28;20015;-85
2022/05/12 02:52:38;;;;;;;18.17;9.40;;;;;;;14.18;100.00;98128.66;5112780;28;20024;-85
2022/05/12 02:55:04;;;;;;;16.42;9.63;;;;;;;14.16;100.00;98137.22;5114381;28;20035;-83
2022/05/12 02:57:30;;;;;;;13.07;9.95;;;;;;;14.16;100.00;98139.19;5114913;28;20020;-83
2022/05/12 02:59:55;;;;;;;14.85;9.50;;;;;;;14.05;100.00;98129.53;5113933;28;20041;-84
2022/05/12 03:02:21;;;;;;;14.43;9.88;;;;;;;13.99;100.00;98136.31;5113569;28;20036;-86
2022/05/12 03:04:46;;;;;;;15.45;10.07;;;;;;;14.01;100.00;98123.03;5113972;28;20065;-85
2022/05/12 03:07:12;;;;;;;17.52;10.35;;;;;;;14.04;100.00;98130.66;5114746;28;20063;-84
2022/05/12 03:09:38;;;;;;;21.67;10.75;;;;;;;14.02;100.00;98124.66;5114306;28;20024;-84
2022/05/12 03:12:04;;;;;;;26.35;10.68;;;;;;;13.99;100.00;98134.38;5114403;28;20024;-85
2022/05/12 03:14:29;;;;;;;21.40;10.20;;;;;;;13.93;100.00;98136.44;5113926;28;20049;-83
2022/05/12 03:16:55;;;;;;;16.27;9.98;;;;;;;14.06;100.00;98137.50;5113307;28;20069;-84
2022/05/12 03:19:22;;;;;;;19.17;10.52;;;;;;;14.00;100.00;98141.50;5113112;28;20043;-80
2022/05/12 03:21:48;;;;;;;18.27;9.30;;;;;;;14.04;100.00;98136.97;5113578;28;20048;-82
2022/05/12 03:24:15;;;;;;;13.68;8.98;;;;;;;13.92;100.00;98136.72;5113633;28;20023;-84
2022/05/12 03:26:40;;;;;;;13.25;8.82;;;;;;;13.92;100.00;98137.56;5113832;28;20000;-84
2022/05/12 03:29:06;;;;;;;18.98;10.25;;;;;;;14.00;100.00;98137.94;5112261;28;20050;-81
2022/05/12 03:31:32;;;;;;;16.67;9.98;;;;;;;13.97;100.00;98138.56;5113221;28;20030;-84
2022/05/12 03:33:59;;;;;;;15.25;9.63;;;;;;;14.01;100.00;98142.28;5112270;28;19992;-85
2022/05/12 03:36:25;;;;;;;18.48;9.48;;;;;;;14.00;100.00;98141.50;5106774;28;20102;-84
2022/05/12 03:38:50;;;;;;;15.35;9.30;;;;;;;14.03;100.00;98142.81;5104126;28;20032;-80
2022/05/12 03:41:16;;;;;;;14.35;9.55;;;;;;;14.04;100.00;98145.22;5105875;28;20050;-85
2022/05/12 03:46:25;;;;;;;16.58;9.65;;;;;;;14.11;100.00;98155.78;5108029;28;20046;-82
2022/05/12 03:48:51;;;;;;;14.80;9.45;;;;;;;14.16;100.00;98148.22;5113285;28;20032;-84
2022/05/12 03:51:17;;;;;;;16.83;9.35;;;;;;;14.19;100.00;98149.56;5113094;28;20020;-87
2022/05/12 03:53:42;;;;;;;21.83;10.27;;;;;;;14.31;100.00;98158.06;5114751;28;20051;-86
2022/05/12 03:56:08;;;;;;;13.82;9.25;;;;;;;14.39;100.00;98157.31;5114252;28;20050;-86
2022/05/12 03:58:34;;;;;;;14.43;9.50;;;;;;;14.51;100.00;98149.28;5108143;28;20036;-83
2022/05/12 04:01:00;;;;;;;15.25;9.23;;;;;;;14.68;100.00;98148.56;5108878;28;20024;-83
2022/05/12 04:03:26;;;;;;;14.57;9.57;;;;;;;14.72;100.00;98150.34;5111295;28;20024;-83
2022/05/12 04:05:54;;;;;;;18.02;9.25;;;;;;;14.86;100.00;98150.25;5117194;28;20004;-87
2022/05/12 04:08:20;;;;;;;16.27;9.68;;;;;;;14.91;100.00;98150.91;5117051;28;20073;-87
2022/05/12 04:10:45;;;;;;;12.73;8.63;;;;;;;15.06;100.00;98166.22;5115176;28;20028;-84
2022/05/12 04:13:11;;;;;;;14.10;8.75;;;;;;;15.25;100.00;98152.16;5113927;28;20049;-87
2022/05/12 04:15:36;;;;;;;16.33;9.35;;;;;;;15.50;99.44;98159.72;5108333;28;20780;-85
2022/05/12 04:18:04;;;;;;;14.40;10.07;;;;;;;15.50;99.17;98154.19;5102929;28;20020;-84
2022/05/12 04:20:32;;;;;;;12.60;8.82;;;;;;;15.47;98.63;98158.38;5112494;28;20028;-85
2022/05/12 04:22:58;;;;;;;14.95;9.07;;;;;;;15.40;99.30;98159.97;5116232;28;20024;-83
2022/05/12 04:25:24;;;;;;;14.65;9.68;;;;;;;15.46;99.41;98158.69;5116237;28;20040;-84
2022/05/12 04:27:50;;;;;;;15.95;10.38;;;;;;;15.57;98.85;98176.56;5116557;28;20070;-84
2022/05/12 04:30:17;;;;;;;18.48;9.77;;;;;;;15.66;97.98;98169.13;5117115;28;20063;-84
2022/05/12 04:32:43;;;;;;;17.50;9.52;;;;;;;15.84;96.73;98170.78;5116859;28;20048;-85
2022/05/12 04:35:11;;;;;;;17.65;10.77;;;;;;;16.66;90.70;98178.00;5115820;28;20031;-85
2022/05/12 04:37:37;;;;;;;14.73;9.65;;;;;;;17.69;82.37;98174.75;5115957;28;20020;-85
2022/05/12 04:40:12;;;;;;;13.82;9.20;;;;;;;17.45;82.29;98175.34;5112431;28;20020;-86
2022/05/12 04:42:37;;;;;;;12.30;9.48;;;;;;;17.43;82.71;98183.19;5113945;28;20028;-85
2022/05/12 04:45:05;;;;;;;19.70;10.27;;;;;;;17.48;82.03;98187.69;5101972;28;20051;-82
2022/05/12 04:47:32;;;;;;;15.80;10.82;;;;;;;16.85;84.34;98183.16;5098065;28;20055;-83
2022/05/12 04:49:58;;;;;;;17.77;9.93;;;;;;;16.22;88.61;98183.91;5088678;28;20032;-84
2022/05/12 04:52:25;;;;;;;18.80;10.05;;;;;;;16.05;91.60;98182.78;5083539;28;20025;-87
2022/05/12 04:54:50;;;;;;;15.80;9.88;;;;;;;16.11;91.89;98182.59;5094602;28;20488;-82
2022/05/12 04:57:15;;;;;;;17.13;10.10;;;;;;;16.13;91.50;98177.56;5099764;28;20042;-88
2022/05/12 04:59:41;;;;;;;17.15;10.60;;;;;;;16.21;91.08;98174.81;5106556;28;20039;-83
2022/05/12 05:02:06;;;;;;;17.60;11.05;;;;;;;16.28;90.81;98183.41;5108688;28;20101;-76
2022/05/12 05:04:32;;;;;;;17.85;10.50;;;;;;;16.54;89.31;98184.19;5093177;28;20016;-75
2022/05/12 05:06:57;;;;;;;20.10;10.75;;;;;;;16.64;88.32;98194.09;5092091;28;20032;-75
2022/05/12 05:09:22;;;;;;;23.05;12.27;;;;;;;16.89;86.84;98179.38;5092119;28;20468;-74
2022/05/12 05:11:48;;;;;;;19.15;11.60;;;;;;;17.69;82.35;98191.38;5092673;28;20032;-73
2022/05/12 05:14:16;;;;;;;16.98;11.15;;;;;;;18.57;76.46;98182.81;5093030;28;20149;-75
2022/05/12 05:16:42;;;;;;;18.27;11.68;;;;;;;18.83;74.20;98197.19;5092909;28;20024;-77
2022/05/12 05:19:07;;;;;;;18.15;11.73;;;;;;;18.31;76.45;98193.31;5091239;28;20031;-76
2022/05/12 05:21:32;;;;;;;19.17;12.07;;;;;;;17.79;79.59;98184.63;5094009;28;20134;-77
2022/05/12 05:23:58;;;;;;;22.35;11.18;;;;;;;17.62;82.02;98193.84;5093179;28;20107;-75
2022/05/12 05:26:23;;;;;;;18.13;11.85;;;;;;;18.14;79.06;98192.31;5093195;28;20106;-78
2022/05/12 05:28:49;;;;;;;13.88;10.23;;;;;;;18.20;78.28;98188.19;5091191;28;20035;-74
2022/05/12 05:31:14;;;;;;;15.90;9.52;;;;;;;18.09;79.43;98192.53;5092434;28;20388;-78
2022/05/12 05:33:40;;;;;;;19.10;10.27;;;;;;;18.06;78.83;98200.69;5092512;28;20020;-75
2022/05/12 05:36:05;;;;;;;20.85;10.38;;;;;;;17.82;79.27;98190.31;5092481;28;20036;-74
2022/05/12 05:38:31;;;;;;;19.50;9.38;;;;;;;17.78;80.29;98194.88;5092121;28;20024;-75
2022/05/12 05:40:56;;;;;;;18.38;9.73;;;;;;;17.81;80.20;98191.44;5092380;28;20020;-75
2022/05/12 05:43:23;;;;;;;17.55;10.98;;;;;;;17.76;80.42;98188.06;5079211;28;20252;-77
2022/05/12 05:45:50;;;;;;;15.93;9.55;;;;;;;17.93;80.12;98188.75;5101401;28;20074;-73
2022/05/12 05:48:16;;;;;;;15.88;10.00;;;;;;;18.25;78.20;98194.66;5092008;28;20069;-74
2022/05/12 05:53:31;;;;;;;19.58;9.18;;;;;;;18.44;76.92;98192.22;5092747;28;20447;-76
2022/05/12 05:56:00;;;;;;;14.38;8.75;;;;;;;18.46;75.85;98195.44;5093479;28;20020;-73
2022/05/12 05:58:27;;;;;;;12.90;9.40;;;;;;;18.71;74.31;98199.94;5091087;28;20030;-75
2022/05/12 06:00:54;;;;;;;16.75;8.45;;;;;;;18.85;73.76;98200.44;5091885;28;20516;-75
2022/05/12 06:03:20;;;;;;;17.70;8.75;;;;;;;19.55;70.46;98199.25;5091755;28;20027;-75
2022/05/12 06:05:46;;;;;;;12.75;8.48;;;;;;;20.44;66.39;98200.00;5091834;28;20051;-74
2022/05/12 06:08:14;;;;;;;22.65;9.20;;;;;;;20.13;66.66;98199.84;5091698;28;20059;-74
2022/05/12 06:10:40;;;;;;;16.83;8.73;;;;;;;19.56;69.55;98192.56;5091159;28;20488;-75
2022/05/12 06:13:06;;;;;;;15.45;8.90;;;;;;;19.39;70.54;98192.75;5091726;28;20102;-75
2022/05/12 06:15:31;;;;;;;20.05;9.07;;;;;;;19.55;70.22;98206.75;5091927;28;20106;-74
2022/05/12 06:17:57;;;;;;;14.50;9.15;;;;;;;19.47;69.26;98204.94;5091914;28;20028;-76
2022/05/12 06:20:23;;;;;;;13.75;9.25;;;;;;;19.47;69.58;98211.28;5090938;28;20028;-76
2022/05/12 06:22:49;;;;;;;19.35;9.90;;;;;;;19.99;68.21;98216.06;5092312;28;20110;-74
2022/05/12 06:25:16;;;;;;;13.82;9.57;;;;;;;19.94;67.40;98208.81;5092588;28;20433;-73
2022/05/12 06:27:41;;;;;;;13.05;9.07;;;;;;;19.86;68.15;98206.97;5090389;28;20035;-75
2022/05/12 06:30:11;;;;;;;14.65;8.82;;;;;;;19.93;68.12;98207.19;5091298;28;20016;-75
2022/05/12 06:32:41;;;;;;;13.00;9.00;;;;;;;20.07;67.79;98206.81;5091332;28;20031;-75
2022/05/12 06:35:08;;;;;;;22.58;10.02;;;;;;;19.96;67.95;98216.78;5091368;28;20016;-73
2022/05/12 06:37:34;;;;;;;17.63;10.13;;;;;;;19.91;68.81;98217.84;5092157;28;20602;-75
2022/05/12 06:40:00;;;;;;;18.70;9.95;;;;;;;20.10;68.53;98212.47;5092159;28;20050;-75
2022/05/12 06:42:25;;;;;;;13.90;9.13;;;;;;;20.25;68.11;98213.72;5091251;28;20469;-75
2022/05/12 06:44:51;;;;;;;14.55;8.90;;;;;;;20.30;66.93;98205.94;5089802;28;20052;-75
2022/05/12 06:47:16;;;;;;;17.48;10.00;;;;;;;20.07;67.72;98213.19;5091734;28;20035;-74
2022/05/12 06:49:43;;;;;;;14.07;8.18;;;;;;;20.19;66.46;98210.38;5091112;28;20032;-73
2022/05/12 06:52:10;;;;;;;17.67;8.35;;;;;;;20.35;65.86;98207.69;5089865;28;20044;-75
2022/05/12 06:54:38;;;;;;;17.98;8.48;;;;;;;20.41;65.71;98205.47;5089674;28;21486;-76
2022/05/12 06:57:04;;;;;;;22.55;9.02;;;;;;;20.57;64.80;98203.53;5091335;28;20028;-75
2022/05/12 06:59:30;;;;;;;13.65;8.00;;;;;;;20.78;63.72;98210.50;5090770;28;20485;-75
2022/05/12 07:01:55;;;;;;;16.60;8.45;;;;;;;21.08;62.18;98201.75;5090614;28;20032;-76
2022/05/12 07:04:24;;;;;;;9.85;7.68;;;;;;;21.11;61.74;98206.63;5089676;28;20052;-74
2022/05/12 07:06:49;;;;;;;14.80;8.48;;;;;;;21.48;60.23;98204.38;5089731;28;20089;-75
2022/05/12 07:09:18;;;;;;;13.57;8.27;;;;;;;21.71;59.08;98206.13;5091349;28;20548;-74
2022/05/12 07:11:44;;;;;;;15.18;7.95;;;;;;;21.74;58.72;98204.63;5090342;28;20020;-75
2022/05/12 07:14:10;;;;;;;23.90;8.95;;;;;;;21.84;58.63;98202.06;5094322;28;20059;-77
2022/05/12 07:16:36;;;;;;;12.63;7.95;;;;;;;22.04;57.66;98194.59;5093344;28;20051;-75
2022/05/12 07:19:01;;;;;;;13.02;9.25;;;;;;;22.32;57.28;98206.34;5090947;28;20107;-75
2022/05/12 07:26:54;;;;;;;12.60;7.72;;;;;;;23.18;52.73;98204.03;5090831;28;20063;-75
2022/05/12 07:29:24;;;;;;;17.42;7.60;;;;;;;23.33;53.85;98200.34;5089461;28;20071;-75
2022/05/12 07:31:50;;;;;;;11.48;7.55;;;;;;;23.68;51.81;98202.13;5091281;28;20038;-76
2022/05/12 07:34:16;;;;;;;14.23;7.57;;;;;;;24.02;50.62;98203.03;5088666;28;20032;-75
2022/05/12 07:36:46;;;;;;;14.23;7.95;;;;;;;24.07;51.09;98205.50;5090385;28;20036;-75
2022/05/12 07:39:12;;;;;;;12.77;7.43;;;;;;;24.26;51.23;98203.41;5090351;28;20024;-74
2022/05/12 07:41:41;;;;;;;11.45;7.22;;;;;;;24.04;51.00;98193.09;5089658;28;20120;-76
2022/05/12 07:44:08;;;;;;;12.70;5.90;;;;;;;24.06;50.82;98196.28;5089198;28;20085;-74
2022/05/12 07:46:33;;;;;;;10.98;6.20;;;;;;;24.47;50.49;98189.69;5087168;28;20442;-75
2022/05/12 07:48:59;;;;;;;10.40;5.72;;;;;;;25.01;48.64;98191.94;5085016;28;20142;-77
2022/05/12 07:51:25;;;;;;;9.20;6.22;;;;;;;25.14;48.21;98192.47;5085283;28;20021;-75
2022/05/12 07:53:52;;;;;;;9.90;5.78;;;;;;;25.13;47.57;98196.44;5088150;28;20115;-76
2022/05/12 07:56:20;;;;;;;13.13;6.00;;;;;;;25.64;46.48;98192.91;5088207;28;20055;-76
2022/05/12 07:58:46;;;;;;;13.68;5.90;;;;;;;27.45;43.70;98196.16;5088950;28;20101;-74
2022/05/12 08:01:14;;;;;;;16.73;6.63;;;;;;;29.71;38.05;98205.75;5085539;28;20122;-75
2022/05/12 08:03:39;;;;;;;15.43;5.93;;;;;;;30.48;36.25;98201.38;5088656;28;20020;-74
2022/05/12 08:06:05;;;;;;;15.18;5.60;;;;;;;32.10;33.09;98206.72;5089212;28;20392;-74
2022/05/12 08:08:31;;;;;;;11.65;5.72;;;;;;;34.80;29.36;98208.44;5087472;28;20054;-72
2022/05/12 08:10:56;;;;;;;13.35;6.43;;;;;;;33.24;30.70;98203.16;5089208;28;20031;-74
2022/05/12 08:13:23;;;;;;;14.68;6.88;;;;;;;34.29;29.73;98206.66;5089144;28;20034;-72
2022/05/12 08:15:50;;;;;;;13.18;5.57;;;;;;;34.54;29.64;98203.94;5089583;28;20016;-73
2022/05/12 08:18:22;;;;;;;10.30;5.25;;;;;;;34.20;29.64;98209.34;5088078;28;20024;-76
2022/05/12 08:20:49;;;;;;;9.23;6.15;;;;;;;33.16;30.74;98198.09;5086017;28;20023;-73
2022/05/12 08:23:15;;;;;;;14.85;6.10;;;;;;;33.57;30.30;98206.84;5087754;28;20028;-73
2022/05/12 08:25:42;;;;;;;10.55;5.57;;;;;;;34.93;28.75;98203.59;5089741;28;20024;-74
2022/05/12 08:28:09;;;;;;;9.43;5.63;;;;;;;35.02;28.55;98207.84;5087733;28;20032;-73
2022/05/12 08:30:34;;;;;;;12.32;6.57;;;;;;;34.89;28.32;98204.97;5089480;28;20020;-72
2022/05/12 08:33:00;;;;;;;8.18;5.40;;;;;;;35.62;27.96;98200.31;5090028;28;20896;-74
2022/05/12 08:35:27;;;;;;;10.73;5.13;;;;;;;35.96;26.80;98198.28;5089818;28;20039;-74
2022/05/12 08:37:53;;;;;;;12.98;5.13;;;;;;;36.48;26.44;98208.28;5088258;28;20039;-76
2022/05/12 08:41:01;;;;;;;9.80;5.20;;;;;;;36.75;25.84;98210.56;5078978;28;20035;-73
2022/05/12 08:43:44;;;;;;;7.65;4.90;;;;;;;36.97;24.76;98209.31;5048096;28;20048;-73
2022/05/12 08:46:19;;;;;;;10.13;4.72;;;;;;;39.06;23.79;98209.06;5092139;28;20070;-73
2022/05/12 08:48:47;;;;;;;9.15;4.75;;;;;;;38.81;23.25;98210.25;5090779;28;20459;-74
2022/05/12 08:51:20;;;;;;;9.40;4.50;;;;;;;39.97;22.38;98215.25;5092253;28;20102;-72
2022/05/12 08:54:03;;;;;;;6.45;4.43;;;;;;;38.97;22.92;98204.13;5091892;28;20039;-72
2022/05/12 08:56:30;;;;;;;5.63;3.97;;;;;;;39.55;22.25;98214.50;5090910;28;20036;-74
2022/05/12 08:58:57;;;;;;;13.82;4.90;;;;;;;38.17;23.70;98202.84;5093464;28;20040;-72
2022/05/12 09:01:49;;;;;;;10.95;4.80;;;;;;;36.81;25.33;98200.97;5089670;28;20036;-76
2022/05/12 09:04:36;;;;;;;8.48;4.80;;;;;;;38.17;23.72;98200.00;5084219;28;20032;-76
2022/05/12 09:07:19;;;;;;;7.40;4.43;;;;;;;38.73;23.89;98206.06;5072982;28;20086;-75
2022/05/12 09:09:53;;;;;;;7.65;4.18;;;;;;;38.81;22.80;98213.09;5072981;28;20029;-77
2022/05/12 09:12:22;;;;;;;7.68;4.03;;;;;;;39.44;22.65;98203.53;5086650;28;20077;-75
2022/05/12 09:15:11;;;;;;;8.00;4.80;;;;;;;38.65;23.16;98207.69;5072910;28;20036;-77
2022/05/12 09:17:47;;;;;;;7.50;4.50;;;;;;;38.62;23.11;98202.13;5079537;28;20020;-77
2022/05/12 09:20:17;;;;;;;6.65;4.82;;;;;;;37.26;24.77;98202.53;5091717;28;20032;-75
2022/05/12 09:22:43;;;;;;;7.50;4.03;;;;;;;37.91;24.53;98194.56;5085360;28;20043;-76
2022/05/12 09:25:10;;;;;;;7.72;4.65;;;;;;;37.97;24.27;98204.09;5095874;28;20031;-76
2022/05/12 09:27:39;;;;;;;7.55;4.63;;;;;;;38.83;23.82;98206.88;5094445;28;20067;-73
2022/05/12 09:30:11;;;;;;;10.18;4.80;;;;;;;38.94;23.46;98202.25;5086209;28;20071;-77
2022/05/12 09:32:38;;;;;;;7.97;4.70;;;;;;;37.95;23.98;98194.41;5081995;28;20059;-76
2022/05/12 09:35:24;;;;;;;8.18;4.88;;;;;;;36.56;25.39;98200.31;5078391;28;20074;-76
2022/05/12 09:37:51;;;;;;;6.68;4.53;;;;;;;34.64;27.88;98182.97;5081941;28;20392;-73
2022/05/12 09:40:19;;;;;;;5.97;4.60;;;;;;;36.04;27.29;98192.34;5088762;28;20439;-76
2022/05/12 09:42:53;;;;;;;5.28;4.15;;;;;;;38.10;24.26;98186.00;5091341;28;20032;-77
2022/05/12 09:45:29;;;;;;;;;;;;;;;38.41;24.10;98195.25;5088379;28;20158;-76
2022/05/12 09:48:08;;;;;;;6.60;4.70;;;;;;;37.16;25.62;98192.31;5089756;28;19919;-76
2022/05/12 09:50:33;;;;;;;5.78;4.20;;;;;;;38.10;24.00;98192.53;5087854;28;20045;-75
2022/05/12 09:53:01;;;;;;;6.68;4.75;;;;;;;39.17;22.88;98188.50;5084835;28;20110;-76
2022/05/12 09:55:32;;;;;;;10.40;4.90;;;;;;;38.64;23.22;98186.06;5084745;28;20107;-76
2022/05/12 09:58:13;;;;;;;7.82;4.95;;;;;;;38.01;23.88;98179.03;5082757;28;20131;-78
2022/05/12 10:00:41;;;;;;;9.20;4.38;;;;;;;38.42;23.44;98171.13;5089584;28;20032;-74
2022/05/12 10:09:23;;;;;;;6.38;4.38;;;;;;;38.78;22.90;98176.03;5082860;28;20131;-76
2022/05/12 10:12:13;;;;;;;6.93;4.20;;;;;;;37.30;24.07;98177.50;5074094;28;20055;-77
2022/05/12 10:15:12;;;;;;;6.45;4.43;;;;;;;37.84;23.34;98171.97;5072392;28;20441;-76
2022/05/12 10:17:43;;;;;;;6.90;4.03;;;;;;;37.76;23.10;98162.09;5071994;28;20039;-73
2022/05/12 10:20:12;;;;;;;7.30;4.25;;;;;;;38.17;22.71;98168.53;5075630;28;21145;-74
2022/05/12 10:22:51;;;;;;;5.72;3.97;;;;;;;38.78;21.75;98178.88;5099403;28;20032;-75
2022/05/12 10:25:26;;;;;;;6.15;4.00;;;;;;;38.30;22.52;98172.84;5089624;28;20016;-78
2022/05/12 10:28:28;;;;;;;6.97;4.40;;;;;;;37.40;23.18;98168.50;5073492;28;20080;-76
2022/05/12 10:31:18;;;;;;;6.60;4.45;;;;;;;37.35;23.31;98165.44;5071566;28;20123;-75
2022/05/12 10:33:46;;;;;;;9.30;4.22;;;;;;;36.53;24.03;98164.94;5071559;28;20056;-75
2022/05/12 10:36:28;;;;;;;7.00;4.90;;;;;;;34.63;25.99;98152.13;5070413;28;20055;-75
2022/05/12 10:39:27;;;;;;;6.75;4.20;;;;;;;32.84;28.53;98148.53;5071770;28;20036;-73
2022/05/12 10:42:15;;;;;;;7.75;4.78;;;;;;;31.75;29.92;98147.88;5088296;28;20063;-77
2022/05/12 10:44:52;;;;;;;16.83;4.90;;;;;;;31.72;30.61;98151.56;5084878;28;20036;-74
2022/05/12 10:47:54;;;;;;;10.48;4.93;;;;;;;31.42;31.25;98143.94;5089327;28;20591;-74
2022/05/12 10:50:31;;;;;;;7.80;5.35;;;;;;;31.43;31.17;98130.59;5088579;28;20032;-75
2022/05/12 10:53:08;;;;;;;7.07;4.63;;;;;;;30.59;31.33;98131.44;5088958;28;20081;-78
2022/05/12 10:55:46;;;;;;;7.28;4.90;;;;;;;30.79;31.22;98132.38;5090102;28;20035;-73
2022/05/12 10:58:30;;;;;;;6.13;4.90;;;;;;;30.79;31.83;98140.06;5088327;28;20028;-77
2022/05/12 11:00:56;;;;;;;6.25;4.30;;;;;;;30.69;32.29;98141.81;5085651;28;20825;-74
2022/05/12 11:03:27;;;;;;;6.93;4.70;;;;;;;30.85;31.97;98129.09;5090199;28;20024;-75
2022/05/12 11:06:05;;;;;;;8.07;4.70;;;;;;;30.73;33.05;98116.34;5087880;28;20115;-76
2022/05/12 11:08:55;;;;;;;7.65;5.20;;;;;;;30.76;33.22;98126.78;5084924;28;20032;-77
2022/05/12 11:11:50;;;;;;;6.28;4.55;;;;;;;30.56;33.76;98120.19;5088567;28;20039;-76
2022/05/12 11:14:31;;;;;;;7.65;5.22;;;;;;;30.31;34.31;98097.09;5087840;28;20045;-77
2022/05/12 11:17:17;;;;;;;6.80;4.65;;;;;;;30.23;33.94;98108.47;5086515;28;20031;-75
2022/05/12 11:19:57;;;;;;;6.00;4.75;;;;;;;30.01;33.83;98112.00;5088891;28;20081;-77
2022/05/12 11:22:49;;;;;;;5.78;3.90;;;;;;;28.61;34.20;98105.03;5089588;28;20071;-76
2022/05/12 11:25:45;;;;;;;8.13;4.50;;;;;;;29.49;34.28;98109.25;5086482;28;20043;-75
2022/05/12 11:31:29;;;;;;;10.68;5.28;;;;;;;29.92;33.83;98111.66;5090923;28;20046;-80
2022/05/12 11:34:01;;;;;;;5.18;4.40;;;;;;;29.97;34.00;98097.13;5093974;28;20024;-75
2022/05/12 11:36:48;;;;;;;7.60;4.85;;;;;;;30.04;33.38;98105.50;5089959;28;20070;-73
2022/05/12 11:39:23;;;;;;;9.57;5.40;;;;;;;29.90;33.67;98114.91;5074491;28;20036;-74
2022/05/12 11:42:05;;;;;;;8.18;4.25;;;;;;;29.68;32.54;98105.84;5079594;28;20786;-77
2022/05/12 11:44:38;;;;;;;7.05;4.35;;;;;;;29.96;31.66;98110.41;5091502;28;20033;-77
2022/05/12 11:47:06;;;;;;;9.27;5.20;;;;;;;29.83;32.10;98105.72;5077272;28;20036;-74
2022/05/12 11:49:43;;;;;;;7.65;4.80;;;;;;;29.77;32.69;98108.97;5081694;28;20078;-80
2022/05/12 11:52:18;;;;;;;5.90;4.18;;;;;;;29.70;33.04;98105.41;5077559;28;20504;-75
2022/05/12 11:54:55;;;;;;;7.03;4.93;;;;;;;29.72;33.97;98100.97;5088095;28;20020;-74
2022/05/12 11:57:34;;;;;;;9.18;4.70;;;;;;;30.00;33.44;98099.09;5085925;28;20028;-75